Time;durP1;ratioP1;P1;durP2;ratioP2;P2;SDS_P1;SDS_P2;PMS_P1;PMS_P2;Temp;Humidity;BMP_temperature;BMP_pressure;BME280_temperature;BME280_humidity;BME280_pressure;Samples;Min_cycle;Max_cycle;Signal;HPM_P1;HPM_P2
2022/09/19 00:00:53;;;;;;;0.00;0.00;;;;;;;;;;5015318;28;20128;-79
2022/09/19 00:03:19;;;;;;;0.00;0.00;;;;;;;;;;5015397;28;20053;-79
2022/09/19 00:05:45;;;;;;;0.00;0.00;;;;;;;;;;5015047;28;20081;-79
2022/09/19 00:08:11;;;;;;;0.00;0.00;;;;;;;;;;5015359;28;20045;-79
2022/09/19 00:10:38;;;;;;;0.00;0.00;;;;;;;;;;5015429;28;20053;-79
2022/09/19 00:13:06;;;;;;;0.00;0.00;;;;;;;;;;5015354;28;20041;-79
2022/09/19 00:15:33;;;;;;;0.00;0.00;;;;;;;;;;5015104;28;20045;-79
2022/09/19 00:18:00;;;;;;;0.00;0.00;;;;;;;;;;5015262;28;20045;-79
2022/09/19 00:20:26;;;;;;;0.00;0.00;;;;;;;;;;5033111;28;20052;-79
2022/09/19 00:25:36;;;;;;;0.00;0.00;;;;;;;;;;5014933;28;20374;-79
2022/09/19 00:28:02;;;;;;;0.00;0.00;;;;;;;;;;4998770;28;20076;-80
2022/09/19 00:30:28;;;;;;;0.00;0.00;;;;;;;;;;5015215;28;20453;-80
2022/09/19 00:32:54;;;;;;;0.00;0.00;;;;;;;;;;5014924;28;20048;-79
2022/09/19 00:35:20;;;;;;;0.00;0.00;;;;;;;;;;5015084;28;20045;-79
2022/09/19 00:37:47;;;;;;;0.00;0.00;;;;;;;;;;5014813;28;20053;-80
2022/09/19 00:40:13;;;;;;;0.00;0.00;;;;;;;;;;5015022;28;20038;-79
2022/09/19 00:42:39;;;;;;;0.00;0.00;;;;;;;;;;5014857;28;20121;-79
2022/09/19 00:45:13;;;;;;;0.00;0.00;;;;;;;;;;5014925;28;20077;-79
2022/09/19 00:47:40;;;;;;;0.00;0.00;;;;;;;;;;5015032;28;20071;-80
2022/09/19 00:50:09;;;;;;;0.00;0.00;;;;;;;;;;5015093;28;20037;-79
2022/09/19 00:52:39;;;;;;;0.00;0.00;;;;;;;;;;5014706;28;20477;-79
2022/09/19 00:55:06;;;;;;;0.00;0.00;;;;;;;;;;5015061;28;20046;-79
2022/09/19 00:57:45;;;;;;;0.00;0.00;;;;;;;;;;5032543;28;20072;-79
2022/09/19 01:00:12;;;;;;;0.00;0.00;;;;;;;;;;5015156;28;20046;-80
2022/09/19 01:02:38;;;;;;;0.00;0.00;;;;;;;;;;5014849;28;20099;-79
2022/09/19 01:05:07;;;;;;;0.00;0.00;;;;;;;;;;5032487;28;20068;-80
2022/09/19 01:07:33;;;;;;;0.00;0.00;;;;;;;;;;5018364;28;20502;-79
2022/09/19 01:10:07;;;;;;;0.00;0.00;;;;;;;;;;5018662;28;20087;-80
2022/09/19 01:12:44;;;;;;;0.00;0.00;;;;;;;;;;5018855;28;20041;-79
2022/09/19 01:15:23;;;;;;;0.00;0.00;;;;;;;;;;5018433;28;20060;-79
2022/09/19 01:17:51;;;;;;;0.00;0.00;;;;;;;;;;5018636;28;20053;-79
2022/09/19 01:20:26;;;;;;;0.00;0.00;;;;;;;;;;5018456;28;20041;-79
2022/09/19 01:23:12;;;;;;;0.00;0.00;;;;;;;;;;5018498;28;20053;-79
2022/09/19 01:25:50;;;;;;;0.00;0.00;;;;;;;;;;5035924;28;20049;-80
2022/09/19 01:28:25;;;;;;;0.00;0.00;;;;;;;;;;5018194;28;20562;-80
2022/09/19 01:31:17;;;;;;;0.00;0.00;;;;;;;;;;5018715;28;20559;-80
2022/09/19 01:34:02;;;;;;;0.00;0.00;;;;;;;;;;5013781;28;20052;-80
2022/09/19 01:36:32;;;;;;;0.00;0.00;;;;;;;;;;5018024;28;20047;-79
2022/09/19 01:38:59;;;;;;;0.00;0.00;;;;;;;;;;5018174;28;20060;-79
2022/09/19 01:41:25;;;;;;;0.00;0.00;;;;;;;;;;5017877;28;20037;-79
2022/09/19 01:43:51;;;;;;;0.00;0.00;;;;;;;;;;5017996;28;20122;-79
2022/09/19 01:46:23;;;;;;;0.00;0.00;;;;;;;;;;5017814;28;20041;-79
2022/09/19 01:48:59;;;;;;;0.00;0.00;;;;;;;;;;5018195;28;20085;-79
2022/09/19 01:51:39;;;;;;;0.00;0.00;;;;;;;;;;5018000;28;20207;-79
2022/09/19 01:54:23;;;;;;;0.00;0.00;;;;;;;;;;5017931;28;20041;-79
2022/09/19 01:56:55;;;;;;;0.00;0.00;;;;;;;;;;5017706;28;20041;-80
2022/09/19 01:59:45;;;;;;;0.00;0.00;;;;;;;;;;5017734;28;20052;-79
2022/09/19 02:02:35;;;;;;;0.00;0.00;;;;;;;;;;5005295;28;20111;-79
2022/09/19 02:05:04;;;;;;;0.00;0.00;;;;;;;;;;5035317;28;20103;-80
2022/09/19 02:07:42;;;;;;;0.00;0.00;;;;;;;;;;5017329;28;20136;-79
2022/09/19 02:10:10;;;;;;;0.00;0.00;;;;;;;;;;5017705;28;20068;-79
2022/09/19 02:12:37;;;;;;;0.00;0.00;;;;;;;;;;5017339;28;20481;-80
2022/09/19 02:15:06;;;;;;;0.00;0.00;;;;;;;;;;5017339;28;20041;-79
2022/09/19 02:17:44;;;;;;;0.00;0.00;;;;;;;;;;5016230;28;20049;-80
2022/09/19 02:20:12;;;;;;;0.00;0.00;;;;;;;;;;5017611;28;20507;-80
2022/09/19 02:22:47;;;;;;;0.00;0.00;;;;;;;;;;5017106;28;20128;-80
2022/09/19 02:25:15;;;;;;;0.00;0.00;;;;;;;;;;5001185;28;20136;-80
2022/09/19 02:27:50;;;;;;;0.00;0.00;;;;;;;;;;5000834;28;20033;-80
2022/09/19 02:30:18;;;;;;;0.00;0.00;;;;;;;;;;5017269;28;20045;-80
2022/09/19 02:32:48;;;;;;;0.00;0.00;;;;;;;;;;5000697;28;20037;-80
2022/09/19 02:35:36;;;;;;;0.00;0.00;;;;;;;;;;5017338;28;20124;-80
2022/09/19 02:38:16;;;;;;;0.00;0.00;;;;;;;;;;5000776;28;20045;-79
2022/09/19 02:40:44;;;;;;;0.00;0.00;;;;;;;;;;5000881;28;20045;-79
2022/09/19 02:43:20;;;;;;;0.00;0.00;;;;;;;;;;5016849;28;20057;-80
2022/09/19 02:45:50;;;;;;;0.00;0.00;;;;;;;;;;5016963;28;20042;-80
2022/09/19 02:48:22;;;;;;;0.00;0.00;;;;;;;;;;5016745;28;20055;-79
2022/09/19 02:50:59;;;;;;;0.00;0.00;;;;;;;;;;5016846;28;20042;-79
2022/09/19 02:53:27;;;;;;;0.00;0.00;;;;;;;;;;5000351;28;20101;-79
2022/09/19 02:55:58;;;;;;;0.00;0.00;;;;;;;;;;5016750;28;20053;-79
2022/09/19 02:58:26;;;;;;;0.00;0.00;;;;;;;;;;5016555;28;20041;-79
2022/09/19 03:00:55;;;;;;;0.00;0.00;;;;;;;;;;5016700;28;20120;-79
2022/09/19 03:06:15;;;;;;;0.00;0.00;;;;;;;;;;5016338;28;20061;-79
2022/09/19 03:08:45;;;;;;;0.00;0.00;;;;;;;;;;5016360;28;20087;-80
2022/09/19 03:11:14;;;;;;;0.00;0.00;;;;;;;;;;5016558;28;20053;-80
2022/09/19 03:13:41;;;;;;;0.00;0.00;;;;;;;;;;5016126;28;20073;-80
2022/09/19 03:16:14;;;;;;;0.00;0.00;;;;;;;;;;5000106;28;20550;-80
2022/09/19 03:18:42;;;;;;;0.00;0.00;;;;;;;;;;5016426;28;20542;-80
2022/09/19 03:21:09;;;;;;;0.00;0.00;;;;;;;;;;5016595;28;20041;-80
2022/09/19 03:23:37;;;;;;;0.00;0.00;;;;;;;;;;5016215;28;20098;-80
2022/09/19 03:26:03;;;;;;;0.00;0.00;;;;;;;;;;4999684;28;20045;-80
2022/09/19 03:28:29;;;;;;;0.00;0.00;;;;;;;;;;5015707;28;20041;-80
2022/09/19 03:30:59;;;;;;;0.00;0.00;;;;;;;;;;5016490;28;20052;-80
2022/09/19 03:33:26;;;;;;;0.00;0.00;;;;;;;;;;4999484;28;20065;-80
2022/09/19 03:35:56;;;;;;;0.00;0.00;;;;;;;;;;5016098;28;20050;-80
2022/09/19 03:38:22;;;;;;;0.00;0.00;;;;;;;;;;4999724;28;20136;-80
2022/09/19 03:40:47;;;;;;;0.00;0.00;;;;;;;;;;5033920;28;20124;-80
2022/09/19 03:43:14;;;;;;;0.00;0.00;;;;;;;;;;5015947;28;20381;-80
2022/09/19 03:45:40;;;;;;;0.00;0.00;;;;;;;;;;5015762;28;20050;-80
2022/09/19 03:48:06;;;;;;;0.00;0.00;;;;;;;;;;5015594;28;20052;-80
2022/09/19 03:50:32;;;;;;;0.00;0.00;;;;;;;;;;5015730;28;20041;-79
2022/09/19 03:52:59;;;;;;;0.00;0.00;;;;;;;;;;5015813;28;20076;-80
2022/09/19 03:55:25;;;;;;;0.00;0.00;;;;;;;;;;5015664;28;20045;-80
2022/09/19 03:57:52;;;;;;;0.00;0.00;;;;;;;;;;5033092;28;20121;-80
2022/09/19 04:00:18;;;;;;;0.00;0.00;;;;;;;;;;5015817;28;20129;-80
2022/09/19 04:02:44;;;;;;;0.00;0.00;;;;;;;;;;4998974;28;20088;-80
2022/09/19 04:05:11;;;;;;;0.00;0.00;;;;;;;;;;5015735;28;20480;-80
2022/09/19 04:07:38;;;;;;;0.00;0.00;;;;;;;;;;4999102;28;20103;-80
2022/09/19 04:10:05;;;;;;;0.00;0.00;;;;;;;;;;5015451;28;20037;-80
2022/09/19 04:12:33;;;;;;;0.00;0.00;;;;;;;;;;5015651;28;20034;-80
2022/09/19 04:15:00;;;;;;;0.00;0.00;;;;;;;;;;4998743;28;20041;-80
2022/09/19 04:17:27;;;;;;;0.00;0.00;;;;;;;;;;5015520;28;20389;-80
2022/09/19 04:19:53;;;;;;;0.00;0.00;;;;;;;;;;4999081;28;20130;-80
2022/09/19 04:22:20;;;;;;;0.00;0.00;;;;;;;;;;5015274;28;20064;-80
2022/09/19 04:24:46;;;;;;;0.00;0.00;;;;;;;;;;5014900;28;20103;-80
2022/09/19 04:27:13;;;;;;;0.00;0.00;;;;;;;;;;5015459;28;20045;-80
2022/09/19 04:29:40;;;;;;;0.00;0.00;;;;;;;;;;5015054;28;20429;-80
2022/09/19 04:32:06;;;;;;;0.00;0.00;;;;;;;;;;5015207;28;20048;-81
2022/09/19 04:34:33;;;;;;;0.00;0.00;;;;;;;;;;4998586;28;20057;-80
2022/09/19 04:37:03;;;;;;;0.00;0.00;;;;;;;;;;5015082;28;20048;-79
2022/09/19 04:39:29;;;;;;;0.00;0.00;;;;;;;;;;4998597;28;20106;-79
2022/09/19 04:41:55;;;;;;;0.00;0.00;;;;;;;;;;5014760;28;20045;-79
2022/09/19 04:44:22;;;;;;;0.00;0.00;;;;;;;;;;5014864;28;20057;-80
2022/09/19 04:46:50;;;;;;;0.00;0.00;;;;;;;;;;5014983;28;20165;-80
2022/09/19 04:49:16;;;;;;;0.00;0.00;;;;;;;;;;5014888;28;20048;-80
2022/09/19 04:51:42;;;;;;;0.00;0.00;;;;;;;;;;5015369;28;20052;-79
2022/09/19 04:54:09;;;;;;;0.00;0.00;;;;;;;;;;5014748;28;20120;-79
2022/09/19 04:56:35;;;;;;;0.00;0.00;;;;;;;;;;5014863;28;20121;-79
2022/09/19 04:59:02;;;;;;;0.00;0.00;;;;;;;;;;5014761;28;20168;-79
2022/09/19 05:01:30;;;;;;;0.00;0.00;;;;;;;;;;5015191;28;20081;-79
2022/09/19 05:03:56;;;;;;;0.00;0.00;;;;;;;;;;5014895;28;20057;-79
2022/09/19 05:06:22;;;;;;;0.00;0.00;;;;;;;;;;5014548;28;20073;-79
2022/09/19 05:08:50;;;;;;;0.00;0.00;;;;;;;;;;5014679;28;20052;-80
2022/09/19 05:11:21;;;;;;;0.00;0.00;;;;;;;;;;4998411;28;20034;-79
2022/09/19 05:13:48;;;;;;;0.00;0.00;;;;;;;;;;4998640;28;20440;-79
2022/09/19 05:16:15;;;;;;;0.00;0.00;;;;;;;;;;5032478;28;20073;-79
2022/09/19 05:18:41;;;;;;;0.00;0.00;;;;;;;;;;5014600;28;20125;-79
2022/09/19 05:21:08;;;;;;;0.00;0.00;;;;;;;;;;5014685;28;20124;-80
2022/09/19 05:23:36;;;;;;;0.00;0.00;;;;;;;;;;5014343;28;20045;-80
2022/09/19 05:26:03;;;;;;;0.00;0.00;;;;;;;;;;5014747;28;20047;-80
2022/09/19 05:28:29;;;;;;;0.00;0.00;;;;;;;;;;5014792;28;20041;-80
2022/09/19 05:30:55;;;;;;;0.00;0.00;;;;;;;;;;4997927;28;20562;-80
2022/09/19 05:33:26;;;;;;;0.00;0.00;;;;;;;;;;5014476;28;20069;-80
2022/09/19 05:35:55;;;;;;;0.00;0.00;;;;;;;;;;5014409;28;20045;-80
2022/09/19 05:38:22;;;;;;;0.00;0.00;;;;;;;;;;5014929;28;20517;-80
2022/09/19 05:40:51;;;;;;;0.00;0.00;;;;;;;;;;5014334;28;20417;-80
2022/09/19 05:43:17;;;;;;;0.00;0.00;;;;;;;;;;5014736;28;20068;-80
2022/09/19 05:45:43;;;;;;;0.00;0.00;;;;;;;;;;5014220;28;20123;-80
2022/09/19 05:48:09;;;;;;;0.00;0.00;;;;;;;;;;5014394;28;20045;-80
2022/09/19 05:50:35;;;;;;;0.00;0.00;;;;;;;;;;5014536;28;20378;-80
2022/09/19 05:55:47;;;;;;;0.00;0.00;;;;;;;;;;5034264;28;20389;-79
2022/09/19 05:58:16;;;;;;;0.00;0.00;;;;;;;;;;5017299;28;20041;-80
2022/09/19 06:00:43;;;;;;;0.00;0.00;;;;;;;;;;5000664;28;20504;-80
2022/09/19 06:03:13;;;;;;;0.00;0.00;;;;;;;;;;5017286;28;20056;-80
2022/09/19 06:05:40;;;;;;;0.00;0.00;;;;;;;;;;5016722;28;20130;-80
2022/09/19 06:08:07;;;;;;;0.00;0.00;;;;;;;;;;5017283;28;20131;-80
2022/09/19 06:10:34;;;;;;;0.00;0.00;;;;;;;;;;5016947;28;20041;-80
2022/09/19 06:13:00;;;;;;;0.00;0.00;;;;;;;;;;5017404;28;20507;-80
2022/09/19 06:15:26;;;;;;;0.00;0.00;;;;;;;;;;5016759;28;20045;-80
2022/09/19 06:17:55;;;;;;;0.00;0.00;;;;;;;;;;5017075;28;20046;-80
2022/09/19 06:20:21;;;;;;;0.00;0.00;;;;;;;;;;5000444;28;20076;-80
2022/09/19 06:22:48;;;;;;;0.00;0.00;;;;;;;;;;5017022;28;20076;-80
2022/09/19 06:25:14;;;;;;;0.00;0.00;;;;;;;;;;5016596;28;20096;-80
2022/09/19 06:27:44;;;;;;;0.00;0.00;;;;;;;;;;5016862;28;20065;-80
2022/09/19 06:30:11;;;;;;;0.00;0.00;;;;;;;;;;5016885;28;20555;-80
2022/09/19 06:32:40;;;;;;;0.00;0.00;;;;;;;;;;5016814;28;20454;-83
2022/09/19 06:35:06;;;;;;;0.00;0.00;;;;;;;;;;5016461;28;20489;-80
2022/09/19 06:37:32;;;;;;;0.00;0.00;;;;;;;;;;5016824;28;20041;-80
2022/09/19 06:39:58;;;;;;;0.00;0.00;;;;;;;;;;5000405;28;20045;-81
2022/09/19 06:42:24;;;;;;;0.00;0.00;;;;;;;;;;5016611;28;20038;-80
2022/09/19 06:44:50;;;;;;;0.00;0.00;;;;;;;;;;5016352;28;20049;-80
2022/09/19 06:47:16;;;;;;;0.00;0.00;;;;;;;;;;5016423;28;20042;-80
2022/09/19 06:49:42;;;;;;;0.00;0.00;;;;;;;;;;5016376;28;20122;-80
2022/09/19 06:52:08;;;;;;;0.00;0.00;;;;;;;;;;5016547;28;20044;-81
2022/09/19 06:54:34;;;;;;;0.00;0.00;;;;;;;;;;5016166;28;20052;-81
2022/09/19 06:57:01;;;;;;;0.00;0.00;;;;;;;;;;5016320;28;20037;-81
2022/09/19 06:59:27;;;;;;;0.00;0.00;;;;;;;;;;4999660;28;20044;-81
2022/09/19 07:01:53;;;;;;;0.00;0.00;;;;;;;;;;5016388;28;20038;-81
2022/09/19 07:04:20;;;;;;;0.00;0.00;;;;;;;;;;4999313;28;20052;-81
2022/09/19 07:06:46;;;;;;;0.00;0.00;;;;;;;;;;5015844;28;20068;-80
2022/09/19 07:09:12;;;;;;;0.00;0.00;;;;;;;;;;5016483;28;20129;-81
2022/09/19 07:11:38;;;;;;;0.00;0.00;;;;;;;;;;5015776;28;20075;-80
2022/09/19 07:14:04;;;;;;;0.00;0.00;;;;;;;;;;5016197;28;20068;-82
2022/09/19 07:16:31;;;;;;;0.00;0.00;;;;;;;;;;5015750;28;20119;-86
2022/09/19 07:18:57;;;;;;;0.00;0.00;;;;;;;;;;5016222;28;20072;-82
2022/09/19 07:21:25;;;;;;;0.00;0.00;;;;;;;;;;5016211;28;20081;-83
2022/09/19 07:23:51;;;;;;;0.00;0.00;;;;;;;;;;4999698;28;20111;-82
2022/09/19 07:26:17;;;;;;;0.00;0.00;;;;;;;;;;5015972;28;20489;-82
2022/09/19 07:28:43;;;;;;;0.00;0.00;;;;;;;;;;5016216;28;20045;-82
2022/09/19 07:31:09;;;;;;;0.00;0.00;;;;;;;;;;5016105;28;20075;-82
2022/09/19 07:33:35;;;;;;;0.00;0.00;;;;;;;;;;5016007;28;20499;-82
2022/09/19 07:36:01;;;;;;;0.00;0.00;;;;;;;;;;5016073;28;20133;-82
2022/09/19 07:38:27;;;;;;;0.00;0.00;;;;;;;;;;5015922;28;20083;-82
2022/09/19 07:40:54;;;;;;;0.00;0.00;;;;;;;;;;5015764;28;20099;-82
2022/09/19 07:43:20;;;;;;;0.00;0.00;;;;;;;;;;5015848;28;20038;-82
2022/09/19 07:45:47;;;;;;;0.00;0.00;;;;;;;;;;4999295;28;20048;-82
2022/09/19 07:48:14;;;;;;;0.00;0.00;;;;;;;;;;5015870;28;20082;-81
2022/09/19 07:50:40;;;;;;;0.00;0.00;;;;;;;;;;5015915;28;20037;-83
2022/09/19 07:53:06;;;;;;;0.00;0.00;;;;;;;;;;5016269;28;20030;-89
2022/09/19 07:55:32;;;;;;;0.00;0.00;;;;;;;;;;5015746;28;20551;-84
2022/09/19 07:57:59;;;;;;;0.00;0.00;;;;;;;;;;5014703;28;20091;-81
2022/09/19 08:00:26;;;;;;;0.00;0.00;;;;;;;;;;4999241;28;20485;-81
2022/09/19 08:03:05;;;;;;;0.00;0.00;;;;;;;;;;4999375;28;20060;-81
2022/09/19 08:05:34;;;;;;;0.00;0.00;;;;;;;;;;5014870;28;20045;-81
2022/09/19 08:08:00;;;;;;;0.00;0.00;;;;;;;;;;5015937;28;20100;-81
2022/09/19 08:10:27;;;;;;;0.00;0.00;;;;;;;;;;5015487;28;20033;-81
2022/09/19 08:12:53;;;;;;;0.00;0.00;;;;;;;;;;5015358;28;20112;-81
2022/09/19 08:15:19;;;;;;;0.00;0.00;;;;;;;;;;5014402;28;20037;-81
2022/09/19 08:17:57;;;;;;;0.00;0.00;;;;;;;;;;4998926;28;20037;-81
2022/09/19 08:20:24;;;;;;;0.00;0.00;;;;;;;;;;5013110;28;20366;-81
2022/09/19 08:22:54;;;;;;;0.00;0.00;;;;;;;;;;4979345;28;20511;-81
2022/09/19 08:25:20;;;;;;;0.00;0.00;;;;;;;;;;4995301;28;20037;-80
2022/09/19 08:27:46;;;;;;;0.00;0.00;;;;;;;;;;4995737;28;20128;-80
2022/09/19 08:30:12;;;;;;;0.00;0.00;;;;;;;;;;4995546;28;20045;-80
2022/09/19 08:32:38;;;;;;;0.00;0.00;;;;;;;;;;4995470;28;20080;-81
2022/09/19 08:35:04;;;;;;;0.00;0.00;;;;;;;;;;4995579;28;20449;-81
2022/09/19 08:37:31;;;;;;;0.00;0.00;;;;;;;;;;4995301;28;20048;-81
2022/09/19 08:40:15;;;;;;;0.00;0.00;;;;;;;;;;4995657;28;20046;-81
2022/09/19 08:43:01;;;;;;;0.00;0.00;;;;;;;;;;4995606;28;20049;-84
2022/09/19 08:45:46;;;;;;;0.00;0.00;;;;;;;;;;4985092;28;20052;-80
2022/09/19 08:48:18;;;;;;;0.00;0.00;;;;;;;;;;4995434;28;20085;-82
2022/09/19 08:50:48;;;;;;;0.00;0.00;;;;;;;;;;4978900;28;20397;-81
2022/09/19 08:53:19;;;;;;;0.00;0.00;;;;;;;;;;4994102;28;20444;-80
2022/09/19 08:55:45;;;;;;;0.00;0.00;;;;;;;;;;4978880;28;20042;-80
2022/09/19 08:58:17;;;;;;;0.00;0.00;;;;;;;;;;4979247;28;20052;-80
2022/09/19 09:00:45;;;;;;;0.00;0.00;;;;;;;;;;4995170;28;20046;-83
2022/09/19 09:03:16;;;;;;;0.00;0.00;;;;;;;;;;4995102;28;20057;-81
2022/09/19 09:05:45;;;;;;;0.00;0.00;;;;;;;;;;4994937;28;20050;-81
2022/09/19 09:08:14;;;;;;;0.00;0.00;;;;;;;;;;4979063;28;20497;-81
2022/09/19 09:10:50;;;;;;;0.00;0.00;;;;;;;;;;4979505;28;20045;-81
2022/09/19 09:13:16;;;;;;;0.00;0.00;;;;;;;;;;4995107;28;20064;-81
2022/09/19 09:15:42;;;;;;;0.00;0.00;;;;;;;;;;5001693;28;20438;-81
2022/09/19 09:18:23;;;;;;;0.00;0.00;;;;;;;;;;5017073;28;20052;-81
2022/09/19 09:20:58;;;;;;;0.00;0.00;;;;;;;;;;5017989;28;20067;-81
2022/09/19 09:23:26;;;;;;;;;;;;;;;;;;5034718;28;20041;-81
2022/09/19 09:25:55;;;;;;;0.00;0.00;;;;;;;;;;5017836;28;19932;-81
2022/09/19 09:28:28;;;;;;;0.00;0.00;;;;;;;;;;5037904;28;20047;-81
2022/09/19 09:30:59;;;;;;;0.00;0.00;;;;;;;;;;5038341;28;20396;-81
2022/09/19 09:33:27;;;;;;;0.00;0.00;;;;;;;;;;5038030;28;20044;-81
2022/09/19 09:35:59;;;;;;;0.00;0.00;;;;;;;;;;5021618;28;20506;-81
2022/09/19 09:38:33;;;;;;;0.00;0.00;;;;;;;;;;5038027;28;20045;-81
2022/09/19 09:44:05;;;;;;;0.00;0.00;;;;;;;;;;5037749;28;20049;-81
2022/09/19 09:46:43;;;;;;;0.00;0.00;;;;;;;;;;5037754;28;20048;-81
2022/09/19 09:49:12;;;;;;;0.00;0.00;;;;;;;;;;5037891;28;20107;-81
2022/09/19 09:51:41;;;;;;;0.00;0.00;;;;;;;;;;5037504;28;20037;-81
2022/09/19 09:57:20;;;;;;;0.00;0.00;;;;;;;;;;5037467;28;20049;-81
2022/09/19 10:05:44;;;;;;;0.00;0.00;;;;;;;;;;5037078;28;20053;-82
2022/09/19 10:08:16;;;;;;;0.00;0.00;;;;;;;;;;5020781;28;20098;-81
2022/09/19 10:10:43;;;;;;;0.00;0.00;;;;;;;;;;5055234;28;20044;-81
2022/09/19 10:13:27;;;;;;;0.00;0.00;;;;;;;;;;5020670;28;20043;-81
2022/09/19 10:16:02;;;;;;;0.00;0.00;;;;;;;;;;5020833;28;20459;-81
2022/09/19 10:18:31;;;;;;;0.00;0.00;;;;;;;;;;5037150;28;20037;-81
2022/09/19 10:20:57;;;;;;;0.00;0.00;;;;;;;;;;5037175;28;20048;-82
2022/09/19 10:23:24;;;;;;;0.00;0.00;;;;;;;;;;5036784;28;20337;-81
2022/09/19 10:25:52;;;;;;;0.00;0.00;;;;;;;;;;5037060;28;20132;-81
2022/09/19 10:28:24;;;;;;;0.00;0.00;;;;;;;;;;5036803;28;20064;-81
2022/09/19 10:30:58;;;;;;;0.00;0.00;;;;;;;;;;5037054;28;20095;-81
2022/09/19 10:33:38;;;;;;;0.00;0.00;;;;;;;;;;5037050;28;20380;-81
2022/09/19 10:36:31;;;;;;;0.00;0.00;;;;;;;;;;5020443;28;20040;-81
2022/09/19 10:38:59;;;;;;;0.00;0.00;;;;;;;;;;5000937;28;20127;-81
2022/09/19 10:41:31;;;;;;;0.00;0.00;;;;;;;;;;5017092;28;20041;-81
2022/09/19 10:43:59;;;;;;;0.00;0.00;;;;;;;;;;5016783;28;20107;-81
2022/09/19 10:46:36;;;;;;;0.00;0.00;;;;;;;;;;5016889;28;20037;-81
2022/09/19 10:49:14;;;;;;;0.00;0.00;;;;;;;;;;5016934;28;20049;-82
2022/09/19 10:51:45;;;;;;;0.00;0.00;;;;;;;;;;5016902;28;20374;-81
2022/09/19 10:54:20;;;;;;;0.00;0.00;;;;;;;;;;5016592;28;20086;-81
2022/09/19 10:56:47;;;;;;;0.00;0.00;;;;;;;;;;5016517;28;20381;-81
2022/09/19 10:59:14;;;;;;;0.00;0.00;;;;;;;;;;5016675;28;20397;-81
2022/09/19 11:01:40;;;;;;;0.00;0.00;;;;;;;;;;5000203;28;20073;-82
2022/09/19 11:04:21;;;;;;;0.00;0.00;;;;;;;;;;4999987;28;20041;-82
2022/09/19 11:07:11;;;;;;;0.00;0.00;;;;;;;;;;5000069;28;20385;-82
2022/09/19 11:09:37;;;;;;;0.00;0.00;;;;;;;;;;5026399;28;20377;-81
2022/09/19 11:12:11;;;;;;;0.00;0.00;;;;;;;;;;5016515;28;20362;-82
2022/09/19 11:14:38;;;;;;;0.00;0.00;;;;;;;;;;5016375;28;20439;-82
2022/09/19 11:17:11;;;;;;;0.00;0.00;;;;;;;;;;5016207;28;20504;-81
2022/09/19 11:19:52;;;;;;;0.00;0.00;;;;;;;;;;5000495;28;20041;-81
2022/09/19 11:22:36;;;;;;;0.00;0.00;;;;;;;;;;5015993;28;20037;-81
2022/09/19 11:25:05;;;;;;;0.00;0.00;;;;;;;;;;5033749;28;20480;-81
2022/09/19 11:27:34;;;;;;;0.00;0.00;;;;;;;;;;5016116;28;20041;-82
2022/09/19 11:30:03;;;;;;;0.00;0.00;;;;;;;;;;4999801;28;20044;-81
2022/09/19 11:32:48;;;;;;;0.00;0.00;;;;;;;;;;5015791;28;20049;-81
2022/09/19 11:35:27;;;;;;;0.00;0.00;;;;;;;;;;4999796;28;20051;-82
2022/09/19 11:37:55;;;;;;;0.00;0.00;;;;;;;;;;5015827;28;20133;-81
2022/09/19 11:40:24;;;;;;;0.00;0.00;;;;;;;;;;5015897;28;20077;-82
2022/09/19 11:42:50;;;;;;;0.00;0.00;;;;;;;;;;5015681;28;20374;-83
2022/09/19 11:45:17;;;;;;;0.00;0.00;;;;;;;;;;5015706;28;20044;-83
2022/09/19 11:47:57;;;;;;;0.00;0.00;;;;;;;;;;5015635;28;20076;-83
2022/09/19 11:50:41;;;;;;;0.00;0.00;;;;;;;;;;4999536;28;20477;-82
2022/09/19 11:53:20;;;;;;;0.00;0.00;;;;;;;;;;5015630;28;20037;-82
2022/09/19 11:55:46;;;;;;;0.00;0.00;;;;;;;;;;5015813;28;20485;-82
2022/09/19 11:58:21;;;;;;;0.00;0.00;;;;;;;;;;4991297;28;20052;-82
2022/09/19 12:01:06;;;;;;;0.00;0.00;;;;;;;;;;5009962;28;20083;-85
2022/09/19 12:03:41;;;;;;;0.00;0.00;;;;;;;;;;5033004;28;20045;-82
2022/09/19 12:06:13;;;;;;;0.00;0.00;;;;;;;;;;5015119;28;20157;-82
2022/09/19 12:08:59;;;;;;;0.00;0.00;;;;;;;;;;4998892;28;20374;-81
2022/09/19 12:11:26;;;;;;;;;;;;;;;;;;5033277;28;20037;-81
2022/09/19 12:13:59;;;;;;;0.00;0.00;;;;;;;;;;5010082;28;19916;-82
2022/09/19 12:16:36;;;;;;;0.00;0.00;;;;;;;;;;5013716;28;20055;-81
2022/09/19 12:19:04;;;;;;;0.00;0.00;;;;;;;;;;5015308;28;20412;-81
2022/09/19 12:21:35;;;;;;;0.00;0.00;;;;;;;;;;4998979;28;20041;-81
2022/09/19 12:26:49;;;;;;;0.00;0.00;;;;;;;;;;5015039;28;20488;-82
2022/09/19 12:29:21;;;;;;;0.00;0.00;;;;;;;;;;5014969;28;20037;-82
2022/09/19 12:31:53;;;;;;;0.00;0.00;;;;;;;;;;5015304;28;20112;-82
2022/09/19 12:34:29;;;;;;;0.00;0.00;;;;;;;;;;5014689;28;20045;-82
2022/09/19 12:37:13;;;;;;;0.00;0.00;;;;;;;;;;4998811;28;20073;-82
2022/09/19 12:39:54;;;;;;;0.00;0.00;;;;;;;;;;5015028;28;20042;-80
2022/09/19 12:42:44;;;;;;;0.00;0.00;;;;;;;;;;5015051;28;20045;-81
2022/09/19 12:45:23;;;;;;;0.00;0.00;;;;;;;;;;5013518;28;20048;-81
2022/09/19 12:47:56;;;;;;;0.00;0.00;;;;;;;;;;5014645;28;20041;-81
2022/09/19 12:50:32;;;;;;;0.00;0.00;;;;;;;;;;5032549;28;20495;-81
2022/09/19 12:53:01;;;;;;;0.00;0.00;;;;;;;;;;5014125;28;20548;-82
2022/09/19 12:55:30;;;;;;;0.00;0.00;;;;;;;;;;5014885;28;20049;-81
2022/09/19 12:57:56;;;;;;;0.00;0.00;;;;;;;;;;5014734;28;20073;-81
2022/09/19 13:00:22;;;;;;;0.00;0.00;;;;;;;;;;4998297;28;20073;-81
2022/09/19 13:02:59;;;;;;;0.00;0.00;;;;;;;;;;5015468;28;20137;-82
2022/09/19 13:05:33;;;;;;;0.00;0.00;;;;;;;;;;4998865;28;20042;-81
2022/09/19 13:08:08;;;;;;;0.00;0.00;;;;;;;;;;4982754;28;20053;-82
2022/09/19 13:10:49;;;;;;;0.00;0.00;;;;;;;;;;5015257;28;20045;-82
2022/09/19 13:13:28;;;;;;;0.00;0.00;;;;;;;;;;5002127;28;20469;-81
2022/09/19 13:16:03;;;;;;;0.00;0.00;;;;;;;;;;5019099;28;20056;-81
2022/09/19 13:24:22;;;;;;;0.00;0.00;;;;;;;;;;5017781;28;20049;-80
2022/09/19 13:26:55;;;;;;;0.00;0.00;;;;;;;;;;5018333;28;20481;-82
2022/09/19 13:29:28;;;;;;;0.00;0.00;;;;;;;;;;5018079;28;20050;-81
2022/09/19 13:31:58;;;;;;;0.00;0.00;;;;;;;;;;5018277;28;20073;-82
2022/09/19 13:34:34;;;;;;;0.00;0.00;;;;;;;;;;5001887;28;20125;-81
2022/09/19 13:37:04;;;;;;;0.00;0.00;;;;;;;;;;5018014;28;20047;-81
2022/09/19 13:39:46;;;;;;;0.00;0.00;;;;;;;;;;5017997;28;20037;-80
2022/09/19 13:42:23;;;;;;;0.00;0.00;;;;;;;;;;5018141;28;20124;-81
2022/09/19 13:44:55;;;;;;;0.00;0.00;;;;;;;;;;5001357;28;20037;-82
2022/09/19 13:47:25;;;;;;;0.15;0.10;;;;;;;;;;5017996;28;20093;-82
2022/09/19 13:50:04;;;;;;;0.00;0.00;;;;;;;;;;5017830;28;20037;-83
2022/09/19 13:52:35;;;;;;;0.00;0.00;;;;;;;;;;5001869;28;20432;-82
2022/09/19 13:55:07;;;;;;;0.00;0.00;;;;;;;;;;5017697;28;20041;-82
2022/09/19 13:57:35;;;;;;;0.00;0.00;;;;;;;;;;5008567;28;20048;-83
2022/09/19 14:00:07;;;;;;;0.00;0.00;;;;;;;;;;5012537;28;20049;-83
2022/09/19 14:02:36;;;;;;;0.00;0.00;;;;;;;;;;5000527;28;20511;-81
2022/09/19 14:05:11;;;;;;;0.05;0.05;;;;;;;;;;5016668;28;20522;-83
2022/09/19 14:07:59;;;;;;;0.00;0.00;;;;;;;;;;5034516;28;20075;-83
2022/09/19 14:10:25;;;;;;;0.00;0.00;;;;;;;;;;5000269;28;20044;-82
2022/09/19 14:12:53;;;;;;;0.00;0.00;;;;;;;;;;5009306;28;20037;-82
2022/09/19 14:15:31;;;;;;;0.00;0.00;;;;;;;;;;5016882;28;20087;-82
2022/09/19 14:18:13;;;;;;;0.00;0.00;;;;;;;;;;5000984;28;20056;-81
2022/09/19 14:20:46;;;;;;;0.00;0.00;;;;;;;;;;4995996;28;20077;-82
2022/09/19 14:23:12;;;;;;;0.00;0.00;;;;;;;;;;5017510;28;20508;-82
2022/09/19 14:25:39;;;;;;;0.00;0.00;;;;;;;;;;5016805;28;20057;-82
2022/09/19 14:28:12;;;;;;;0.00;0.00;;;;;;;;;;5012556;28;20033;-82
2022/09/19 14:30:57;;;;;;;0.00;0.00;;;;;;;;;;5017071;28;20037;-83
2022/09/19 14:33:26;;;;;;;0.00;0.00;;;;;;;;;;5012602;28;20112;-82
2022/09/19 14:36:01;;;;;;;0.00;0.00;;;;;;;;;;5016568;28;20059;-82
2022/09/19 14:38:31;;;;;;;0.00;0.00;;;;;;;;;;4985103;28;20099;-83
2022/09/19 14:41:05;;;;;;;0.00;0.00;;;;;;;;;;4981075;28;20409;-82
2022/09/19 14:43:44;;;;;;;0.00;0.00;;;;;;;;;;5016686;28;20072;-82
2022/09/19 14:46:18;;;;;;;0.00;0.00;;;;;;;;;;5016662;28;20391;-82
2022/09/19 14:49:03;;;;;;;0.00;0.00;;;;;;;;;;5016741;28;20052;-82
2022/09/19 14:51:37;;;;;;;0.00;0.00;;;;;;;;;;4995911;28;20092;-81
2022/09/19 14:54:26;;;;;;;0.00;0.00;;;;;;;;;;4993968;28;20041;-82
2022/09/19 14:56:56;;;;;;;0.00;0.00;;;;;;;;;;4999675;28;20098;-82
2022/09/19 14:59:22;;;;;;;0.00;0.00;;;;;;;;;;5016361;28;20132;-81
2022/09/19 15:01:48;;;;;;;0.00;0.00;;;;;;;;;;5011795;28;20041;-82
2022/09/19 15:04:23;;;;;;;0.00;0.00;;;;;;;;;;5016369;28;20041;-82
2022/09/19 15:06:51;;;;;;;0.00;0.00;;;;;;;;;;5000176;28;20072;-82
2022/09/19 15:09:28;;;;;;;0.00;0.00;;;;;;;;;;5016369;28;20044;-81
2022/09/19 15:11:55;;;;;;;0.00;0.00;;;;;;;;;;5000219;28;20041;-81
2022/09/19 15:14:24;;;;;;;0.00;0.00;;;;;;;;;;5016264;28;20128;-81
2022/09/19 15:17:09;;;;;;;0.00;0.00;;;;;;;;;;5016182;28;20060;-81
2022/09/19 15:19:35;;;;;;;0.00;0.00;;;;;;;;;;5034091;28;20041;-81
2022/09/19 15:22:01;;;;;;;0.00;0.00;;;;;;;;;;5016433;28;20047;-81
2022/09/19 15:24:29;;;;;;;0.00;0.00;;;;;;;;;;5015733;28;20045;-81
2022/09/19 15:26:57;;;;;;;0.00;0.00;;;;;;;;;;4999531;28;20037;-81
2022/09/19 15:29:36;;;;;;;0.00;0.00;;;;;;;;;;5015977;28;20037;-82
2022/09/19 15:32:17;;;;;;;0.00;0.00;;;;;;;;;;5016029;28;20096;-81